sensor_id;sensor_type;location;lat;lon;timestamp;temperature;humidity
78779;DHT22;68121;52.404;5.318;2024-03-23T00:51:26;8.20;71.80
78779;DHT22;68121;52.404;5.318;2024-03-23T00:56:19;8.10;71.80
78779;DHT22;68121;52.404;5.318;2024-03-23T00:58:45;8.10;71.80
78779;DHT22;68121;52.404;5.318;2024-03-23T01:01:11;8.10;71.90
78779;DHT22;68121;52.404;5.318;2024-03-23T01:03:37;8.00;71.90
78779;DHT22;68121;52.404;5.318;2024-03-23T01:06:03;8.00;71.90
78779;DHT22;68121;52.404;5.318;2024-03-23T01:08:30;8.00;71.90
78779;DHT22;68121;52.404;5.318;2024-03-23T01:11:00;8.00;71.90
78779;DHT22;68121;52.404;5.318;2024-03-23T01:13:27;8.00;71.80
78779;DHT22;68121;52.404;5.318;2024-03-23T01:15:54;8.00;71.90
78779;DHT22;68121;52.404;5.318;2024-03-23T01:18:21;7.90;71.90
78779;DHT22;68121;52.404;5.318;2024-03-23T01:20:48;7.90;71.90
78779;DHT22;68121;52.404;5.318;2024-03-23T01:23:14;7.90;71.90
78779;DHT22;68121;52.404;5.318;2024-03-23T01:25:40;7.90;71.90
78779;DHT22;68121;52.404;5.318;2024-03-23T01:28:07;7.90;71.90
78779;DHT22;68121;52.404;5.318;2024-03-23T01:30:36;7.90;72.00
78779;DHT22;68121;52.404;5.318;2024-03-23T01:33:02;7.90;71.90
78779;DHT22;68121;52.404;5.318;2024-03-23T01:35:29;7.80;71.90
78779;DHT22;68121;52.404;5.318;2024-03-23T01:37:55;7.80;71.90
78779;DHT22;68121;52.404;5.318;2024-03-23T01:40:21;7.80;72.10
78779;DHT22;68121;52.404;5.318;2024-03-23T01:42:56;7.80;72.10
78779;DHT22;68121;52.404;5.318;2024-03-23T01:45:23;7.70;72.20
78779;DHT22;68121;52.404;5.318;2024-03-23T01:47:51;7.60;72.20
78779;DHT22;68121;52.404;5.318;2024-03-23T01:50:17;7.60;72.20
78779;DHT22;68121;52.404;5.318;2024-03-23T01:52:43;7.60;72.30
78779;DHT22;68121;52.404;5.318;2024-03-23T01:55:10;7.60;72.30
78779;DHT22;68121;52.404;5.318;2024-03-23T01:57:36;7.50;72.30
78779;DHT22;68121;52.404;5.318;2024-03-23T02:00:03;7.50;72.30
78779;DHT22;68121;52.404;5.318;2024-03-23T02:02:29;7.50;72.30
78779;DHT22;68121;52.404;5.318;2024-03-23T02:04:55;7.50;72.40
78779;DHT22;68121;52.404;5.318;2024-03-23T02:07:21;7.50;72.50
78779;DHT22;68121;52.404;5.318;2024-03-23T02:09:47;7.40;72.50
78779;DHT22;68121;52.404;5.318;2024-03-23T02:12:13;7.40;72.60
78779;DHT22;68121;52.404;5.318;2024-03-23T02:14:39;7.40;72.60
78779;DHT22;68121;52.404;5.318;2024-03-23T02:17:05;7.40;72.50
78779;DHT22;68121;52.404;5.318;2024-03-23T02:19:31;7.40;72.60
78779;DHT22;68121;52.404;5.318;2024-03-23T02:21:57;7.30;72.60
78779;DHT22;68121;52.404;5.318;2024-03-23T02:24:23;7.30;72.60
78779;DHT22;68121;52.404;5.318;2024-03-23T02:26:49;7.20;72.70
78779;DHT22;68121;52.404;5.318;2024-03-23T02:29:15;7.20;72.60
78779;DHT22;68121;52.404;5.318;2024-03-23T02:31:41;7.20;72.60
78779;DHT22;68121;52.404;5.318;2024-03-23T02:34:07;7.20;72.70
78779;DHT22;68121;52.404;5.318;2024-03-23T02:36:33;7.20;72.60
78779;DHT22;68121;52.404;5.318;2024-03-23T02:39:00;7.20;72.60
78779;DHT22;68121;52.404;5.318;2024-03-23T02:41:26;7.20;72.60
78779;DHT22;68121;52.404;5.318;2024-03-23T02:43:52;7.20;72.60
78779;DHT22;68121;52.404;5.318;2024-03-23T02:46:18;7.20;72.50
78779;DHT22;68121;52.404;5.318;2024-03-23T02:48:44;7.20;72.50
78779;DHT22;68121;52.404;5.318;2024-03-23T02:51:10;7.20;72.50
78779;DHT22;68121;52.404;5.318;2024-03-23T02:53:36;7.20;72.50
78779;DHT22;68121;52.404;5.318;2024-03-23T02:56:02;7.20;72.40
78779;DHT22;68121;52.404;5.318;2024-03-23T02:58:29;7.20;72.20
78779;DHT22;68121;52.404;5.318;2024-03-23T03:00:55;7.20;72.20
78779;DHT22;68121;52.404;5.318;2024-03-23T03:03:21;7.20;72.20
78779;DHT22;68121;52.404;5.318;2024-03-23T03:05:47;7.20;72.20
78779;DHT22;68121;52.404;5.318;2024-03-23T03:08:13;7.20;72.10
78779;DHT22;68121;52.404;5.318;2024-03-23T03:10:39;7.20;72.10
78779;DHT22;68121;52.404;5.318;2024-03-23T03:13:05;7.20;72.00
78779;DHT22;68121;52.404;5.318;2024-03-23T03:15:31;7.20;71.90
78779;DHT22;68121;52.404;5.318;2024-03-23T03:17:57;7.10;71.90
78779;DHT22;68121;52.404;5.318;2024-03-23T03:20:23;7.10;71.90
78779;DHT22;68121;52.404;5.318;2024-03-23T03:22:50;7.10;71.80
78779;DHT22;68121;52.404;5.318;2024-03-23T03:25:16;7.10;71.70
78779;DHT22;68121;52.404;5.318;2024-03-23T03:27:42;7.10;71.70
78779;DHT22;68121;52.404;5.318;2024-03-23T03:30:08;7.10;71.60
78779;DHT22;68121;52.404;5.318;2024-03-23T03:32:34;7.00;71.50
78779;DHT22;68121;52.404;5.318;2024-03-23T03:35:01;7.10;71.50
78779;DHT22;68121;52.404;5.318;2024-03-23T03:37:27;7.00;71.50
78779;DHT22;68121;52.404;5.318;2024-03-23T03:39:53;7.00;71.40
78779;DHT22;68121;52.404;5.318;2024-03-23T03:42:19;7.00;71.40
78779;DHT22;68121;52.404;5.318;2024-03-23T03:44:45;7.00;71.40
78779;DHT22;68121;52.404;5.318;2024-03-23T03:47:11;7.00;71.30
78779;DHT22;68121;52.404;5.318;2024-03-23T03:49:37;7.00;71.20
78779;DHT22;68121;52.404;5.318;2024-03-23T03:52:03;7.00;71.20
78779;DHT22;68121;52.404;5.318;2024-03-23T03:54:29;7.00;71.10
78779;DHT22;68121;52.404;5.318;2024-03-23T03:56:55;7.00;71.10
78779;DHT22;68121;52.404;5.318;2024-03-23T03:59:21;7.00;71.00
78779;DHT22;68121;52.404;5.318;2024-03-23T04:01:47;7.00;71.00
78779;DHT22;68121;52.404;5.318;2024-03-23T04:04:13;7.00;70.90
78779;DHT22;68121;52.404;5.318;2024-03-23T04:06:40;7.00;70.90
78779;DHT22;68121;52.404;5.318;2024-03-23T04:09:06;7.00;70.80
78779;DHT22;68121;52.404;5.318;2024-03-23T04:11:32;7.00;70.80
78779;DHT22;68121;52.404;5.318;2024-03-23T04:13:58;7.00;70.70
78779;DHT22;68121;52.404;5.318;2024-03-23T04:16:28;7.00;70.70
78779;DHT22;68121;52.404;5.318;2024-03-23T04:18:54;7.00;70.70
78779;DHT22;68121;52.404;5.318;2024-03-23T04:21:21;7.00;70.70
78779;DHT22;68121;52.404;5.318;2024-03-23T04:23:48;7.00;70.70
78779;DHT22;68121;52.404;5.318;2024-03-23T04:26:15;7.00;70.70
78779;DHT22;68121;52.404;5.318;2024-03-23T04:28:41;7.00;70.70
78779;DHT22;68121;52.404;5.318;2024-03-23T04:31:07;7.00;70.70
78779;DHT22;68121;52.404;5.318;2024-03-23T04:33:33;7.00;70.60
78779;DHT22;68121;52.404;5.318;2024-03-23T04:36:00;7.00;70.60
78779;DHT22;68121;52.404;5.318;2024-03-23T04:38:26;7.00;70.60
78779;DHT22;68121;52.404;5.318;2024-03-23T04:40:58;6.90;70.50
78779;DHT22;68121;52.404;5.318;2024-03-23T04:43:28;6.90;70.60
78779;DHT22;68121;52.404;5.318;2024-03-23T04:45:54;6.80;70.60
78779;DHT22;68121;52.404;5.318;2024-03-23T04:48:21;6.80;70.70
78779;DHT22;68121;52.404;5.318;2024-03-23T04:50:55;6.70;70.70
78779;DHT22;68121;52.404;5.318;2024-03-23T04:53:24;6.70;70.70
78779;DHT22;68121;52.404;5.318;2024-03-23T04:55:57;6.60;70.70
78779;DHT22;68121;52.404;5.318;2024-03-23T04:58:25;6.60;70.80
78779;DHT22;68121;52.404;5.318;2024-03-23T05:00:57;6.60;70.80
78779;DHT22;68121;52.404;5.318;2024-03-23T05:03:23;6.70;70.80
78779;DHT22;68121;52.404;5.318;2024-03-23T05:05:50;6.60;70.80
78779;DHT22;68121;52.404;5.318;2024-03-23T05:08:16;6.60;70.80
78779;DHT22;68121;52.404;5.318;2024-03-23T05:10:43;6.60;70.80
78779;DHT22;68121;52.404;5.318;2024-03-23T05:13:09;6.60;70.70
78779;DHT22;68121;52.404;5.318;2024-03-23T05:15:35;6.70;70.70
78779;DHT22;68121;52.404;5.318;2024-03-23T05:18:02;6.70;70.70
78779;DHT22;68121;52.404;5.318;2024-03-23T05:20:28;6.70;70.70
78779;DHT22;68121;52.404;5.318;2024-03-23T05:22:55;6.70;70.70
78779;DHT22;68121;52.404;5.318;2024-03-23T05:25:21;6.70;70.70
78779;DHT22;68121;52.404;5.318;2024-03-23T05:27:47;6.70;70.70
78779;DHT22;68121;52.404;5.318;2024-03-23T05:30:13;6.70;70.80
78779;DHT22;68121;52.404;5.318;2024-03-23T05:32:40;6.70;70.80
78779;DHT22;68121;52.404;5.318;2024-03-23T05:35:08;6.70;70.80
78779;DHT22;68121;52.404;5.318;2024-03-23T05:37:34;6.60;70.90
78779;DHT22;68121;52.404;5.318;2024-03-23T05:40:01;6.60;71.00
78779;DHT22;68121;52.404;5.318;2024-03-23T05:42:29;6.50;71.00
78779;DHT22;68121;52.404;5.318;2024-03-23T05:44:55;6.50;71.00
78779;DHT22;68121;52.404;5.318;2024-03-23T05:47:21;6.50;71.10
78779;DHT22;68121;52.404;5.318;2024-03-23T05:49:47;6.40;71.10
78779;DHT22;68121;52.404;5.318;2024-03-23T05:52:14;6.30;71.10
78779;DHT22;68121;52.404;5.318;2024-03-23T05:54:40;6.30;71.20
78779;DHT22;68121;52.404;5.318;2024-03-23T05:57:06;6.30;71.20
78779;DHT22;68121;52.404;5.318;2024-03-23T05:59:35;6.30;71.20
78779;DHT22;68121;52.404;5.318;2024-03-23T06:02:01;6.30;71.30
78779;DHT22;68121;52.404;5.318;2024-03-23T06:04:27;6.30;71.30
78779;DHT22;68121;52.404;5.318;2024-03-23T06:06:53;6.30;71.20
78779;DHT22;68121;52.404;5.318;2024-03-23T06:09:19;6.30;71.30
78779;DHT22;68121;52.404;5.318;2024-03-23T06:11:45;6.40;71.30
78779;DHT22;68121;52.404;5.318;2024-03-23T06:14:11;6.40;71.30
78779;DHT22;68121;52.404;5.318;2024-03-23T06:16:37;6.40;71.30
78779;DHT22;68121;52.404;5.318;2024-03-23T06:19:04;6.40;71.20
78779;DHT22;68121;52.404;5.318;2024-03-23T06:21:32;6.40;71.20
78779;DHT22;68121;52.404;5.318;2024-03-23T06:23:59;6.40;71.20
78779;DHT22;68121;52.404;5.318;2024-03-23T06:26:25;6.40;71.30
78779;DHT22;68121;52.404;5.318;2024-03-23T06:28:51;6.40;71.40
78779;DHT22;68121;52.404;5.318;2024-03-23T06:31:17;6.40;71.40
78779;DHT22;68121;52.404;5.318;2024-03-23T06:33:43;6.50;71.50
78779;DHT22;68121;52.404;5.318;2024-03-23T06:36:10;6.60;71.50
78779;DHT22;68121;52.404;5.318;2024-03-23T06:38:37;6.70;71.60
78779;DHT22;68121;52.404;5.318;2024-03-23T06:41:07;6.90;71.30
78779;DHT22;68121;52.404;5.318;2024-03-23T06:43:33;7.00;71.10
78779;DHT22;68121;52.404;5.318;2024-03-23T06:45:59;7.10;71.00
78779;DHT22;68121;52.404;5.318;2024-03-23T06:48:25;7.20;71.00
78779;DHT22;68121;52.404;5.318;2024-03-23T06:50:56;7.20;71.00
78779;DHT22;68121;52.404;5.318;2024-03-23T06:53:23;7.20;71.10
78779;DHT22;68121;52.404;5.318;2024-03-23T06:55:53;7.20;71.10
78779;DHT22;68121;52.404;5.318;2024-03-23T06:58:20;7.20;71.10
78779;DHT22;68121;52.404;5.318;2024-03-23T07:00:46;7.20;71.20
78779;DHT22;68121;52.404;5.318;2024-03-23T07:03:12;7.20;71.20
78779;DHT22;68121;52.404;5.318;2024-03-23T07:05:38;7.20;71.20
78779;DHT22;68121;52.404;5.318;2024-03-23T07:08:05;7.20;71.30
78779;DHT22;68121;52.404;5.318;2024-03-23T07:10:31;7.20;71.30
78779;DHT22;68121;52.404;5.318;2024-03-23T07:12:57;7.20;71.30
78779;DHT22;68121;52.404;5.318;2024-03-23T07:15:23;7.20;71.30
78779;DHT22;68121;52.404;5.318;2024-03-23T07:17:49;7.20;71.30
78779;DHT22;68121;52.404;5.318;2024-03-23T07:20:15;7.20;71.30
78779;DHT22;68121;52.404;5.318;2024-03-23T07:22:41;7.20;71.20
78779;DHT22;68121;52.404;5.318;2024-03-23T07:25:08;7.30;71.30
78779;DHT22;68121;52.404;5.318;2024-03-23T07:27:34;7.30;71.20
78779;DHT22;68121;52.404;5.318;2024-03-23T07:30:00;7.40;71.10
78779;DHT22;68121;52.404;5.318;2024-03-23T07:32:27;7.40;71.10
78779;DHT22;68121;52.404;5.318;2024-03-23T07:34:53;7.40;71.00
78779;DHT22;68121;52.404;5.318;2024-03-23T07:37:19;7.40;70.90
78779;DHT22;68121;52.404;5.318;2024-03-23T07:39:45;7.50;70.80
78779;DHT22;68121;52.404;5.318;2024-03-23T07:42:11;7.50;70.70
78779;DHT22;68121;52.404;5.318;2024-03-23T07:44:37;7.50;70.70
78779;DHT22;68121;52.404;5.318;2024-03-23T07:47:03;7.50;70.70
78779;DHT22;68121;52.404;5.318;2024-03-23T07:49:29;7.50;70.70
78779;DHT22;68121;52.404;5.318;2024-03-23T07:51:55;7.60;70.50
78779;DHT22;68121;52.404;5.318;2024-03-23T07:54:21;7.80;70.50
78779;DHT22;68121;52.404;5.318;2024-03-23T07:56:47;8.00;70.30
78779;DHT22;68121;52.404;5.318;2024-03-23T07:59:13;8.20;70.00
78779;DHT22;68121;52.404;5.318;2024-03-23T08:01:40;8.40;69.60
78779;DHT22;68121;52.404;5.318;2024-03-23T08:04:06;8.60;69.30
78779;DHT22;68121;52.404;5.318;2024-03-23T08:06:32;8.80;69.00
78779;DHT22;68121;52.404;5.318;2024-03-23T08:08:58;9.00;68.70
78779;DHT22;68121;52.404;5.318;2024-03-23T08:11:28;9.20;68.40
78779;DHT22;68121;52.404;5.318;2024-03-23T08:13:55;9.50;68.10
78779;DHT22;68121;52.404;5.318;2024-03-23T08:16:22;9.70;67.90
78779;DHT22;68121;52.404;5.318;2024-03-23T08:18:48;9.80;67.50
78779;DHT22;68121;52.404;5.318;2024-03-23T08:21:14;9.70;67.30
78779;DHT22;68121;52.404;5.318;2024-03-23T08:23:40;9.70;67.30
78779;DHT22;68121;52.404;5.318;2024-03-23T08:26:08;9.70;67.30
78779;DHT22;68121;52.404;5.318;2024-03-23T08:28:35;9.70;67.50
78779;DHT22;68121;52.404;5.318;2024-03-23T08:31:07;9.90;67.30
78779;DHT22;68121;52.404;5.318;2024-03-23T08:33:33;10.10;67.00
78779;DHT22;68121;52.404;5.318;2024-03-23T08:36:01;10.20;66.70
78779;DHT22;68121;52.404;5.318;2024-03-23T08:38:28;10.30;66.40
78779;DHT22;68121;52.404;5.318;2024-03-23T08:41:01;10.20;66.40
78779;DHT22;68121;52.404;5.318;2024-03-23T08:43:29;10.10;66.40
78779;DHT22;68121;52.404;5.318;2024-03-23T08:48:44;10.20;66.10
78779;DHT22;68121;52.404;5.318;2024-03-23T08:51:12;10.40;65.80
78779;DHT22;68121;52.404;5.318;2024-03-23T08:53:39;10.40;65.60
78779;DHT22;68121;52.404;5.318;2024-03-23T08:56:06;10.50;65.50
78779;DHT22;68121;52.404;5.318;2024-03-23T08:58:34;10.50;65.40
78779;DHT22;68121;52.404;5.318;2024-03-23T09:01:08;10.70;65.10
78779;DHT22;68121;52.404;5.318;2024-03-23T09:03:34;10.80;64.70
78779;DHT22;68121;52.404;5.318;2024-03-23T09:06:09;10.60;64.60
78779;DHT22;68121;52.404;5.318;2024-03-23T09:08:36;10.30;64.70
78779;DHT22;68121;52.404;5.318;2024-03-23T09:11:09;9.90;65.30
78779;DHT22;68121;52.404;5.318;2024-03-23T09:13:36;9.60;65.60
78779;DHT22;68121;52.404;5.318;2024-03-23T09:16:03;9.40;66.00
78779;DHT22;68121;52.404;5.318;2024-03-23T09:18:33;9.20;66.30
78779;DHT22;68121;52.404;5.318;2024-03-23T09:21:01;9.20;66.50
78779;DHT22;68121;52.404;5.318;2024-03-23T09:23:28;9.50;66.20
78779;DHT22;68121;52.404;5.318;2024-03-23T09:25:54;9.80;65.80
78779;DHT22;68121;52.404;5.318;2024-03-23T09:28:20;9.90;65.40
78779;DHT22;68121;52.404;5.318;2024-03-23T09:30:46;9.90;65.30
78779;DHT22;68121;52.404;5.318;2024-03-23T09:33:13;9.70;65.30
78779;DHT22;68121;52.404;5.318;2024-03-23T09:35:40;9.60;65.30
78779;DHT22;68121;52.404;5.318;2024-03-23T09:38:06;9.40;65.30
78779;DHT22;68121;52.404;5.318;2024-03-23T09:40:40;9.40;65.40
78779;DHT22;68121;52.404;5.318;2024-03-23T09:43:08;9.20;65.50
78779;DHT22;68121;52.404;5.318;2024-03-23T09:45:38;9.10;65.40
78779;DHT22;68121;52.404;5.318;2024-03-23T09:48:05;8.90;65.60
78779;DHT22;68121;52.404;5.318;2024-03-23T09:50:32;8.60;65.90
78779;DHT22;68121;52.404;5.318;2024-03-23T09:52:58;8.40;66.20
78779;DHT22;68121;52.404;5.318;2024-03-23T09:55:24;8.30;66.50
78779;DHT22;68121;52.404;5.318;2024-03-23T09:57:50;8.20;66.60
78779;DHT22;68121;52.404;5.318;2024-03-23T10:00:16;8.10;66.70
78779;DHT22;68121;52.404;5.318;2024-03-23T10:02:43;8.20;67.10
78779;DHT22;68121;52.404;5.318;2024-03-23T10:05:22;8.40;66.90
78779;DHT22;68121;52.404;5.318;2024-03-23T10:07:52;8.70;66.60
78779;DHT22;68121;52.404;5.318;2024-03-23T10:10:19;9.00;66.30
78779;DHT22;68121;52.404;5.318;2024-03-23T10:12:49;9.40;66.00
78779;DHT22;68121;52.404;5.318;2024-03-23T10:15:19;9.80;65.60
78779;DHT22;68121;52.404;5.318;2024-03-23T10:17:45;10.10;65.00
78779;DHT22;68121;52.404;5.318;2024-03-23T10:20:12;10.20;64.50
78779;DHT22;68121;52.404;5.318;2024-03-23T10:22:38;10.00;64.50
78779;DHT22;68121;52.404;5.318;2024-03-23T10:25:10;9.80;64.70
78779;DHT22;68121;52.404;5.318;2024-03-23T10:27:37;9.80;64.80
78779;DHT22;68121;52.404;5.318;2024-03-23T10:30:11;9.70;64.80
78779;DHT22;68121;52.404;5.318;2024-03-23T10:32:37;9.60;64.80
78779;DHT22;68121;52.404;5.318;2024-03-23T10:35:16;9.60;65.00
78779;DHT22;68121;52.404;5.318;2024-03-23T10:37:45;9.80;64.60
78779;DHT22;68121;52.404;5.318;2024-03-23T10:40:13;10.00;64.50
78779;DHT22;68121;52.404;5.318;2024-03-23T10:42:39;10.30;64.20
78779;DHT22;68121;52.404;5.318;2024-03-23T10:45:06;10.70;63.60
78779;DHT22;68121;52.404;5.318;2024-03-23T10:47:35;10.80;63.10
78779;DHT22;68121;52.404;5.318;2024-03-23T10:50:03;10.90;62.90
78779;DHT22;68121;52.404;5.318;2024-03-23T10:52:34;10.90;62.70
78779;DHT22;68121;52.404;5.318;2024-03-23T10:55:04;10.70;62.70
78779;DHT22;68121;52.404;5.318;2024-03-23T10:57:37;10.30;63.20
78779;DHT22;68121;52.404;5.318;2024-03-23T11:00:05;9.80;63.90
78779;DHT22;68121;52.404;5.318;2024-03-23T11:02:31;9.30;64.50
78779;DHT22;68121;52.404;5.318;2024-03-23T11:04:57;8.90;65.20
78779;DHT22;68121;52.404;5.318;2024-03-23T11:09:50;8.40;66.20
78779;DHT22;68121;52.404;5.318;2024-03-23T11:15:04;8.20;66.90
78779;DHT22;68121;52.404;5.318;2024-03-23T11:17:31;8.40;67.10
78779;DHT22;68121;52.404;5.318;2024-03-23T11:22:43;9.20;66.60
78779;DHT22;68121;52.404;5.318;2024-03-23T11:25:16;9.50;66.00
78779;DHT22;68121;52.404;5.318;2024-03-23T11:27:44;9.70;65.70
78779;DHT22;68121;52.404;5.318;2024-03-23T11:30:21;10.00;65.50
78779;DHT22;68121;52.404;5.318;2024-03-23T11:32:56;10.20;65.10
78779;DHT22;68121;52.404;5.318;2024-03-23T11:38:14;10.20;64.90
78779;DHT22;68121;52.404;5.318;2024-03-23T11:40:48;10.20;64.70
78779;DHT22;68121;52.404;5.318;2024-03-23T11:43:16;10.10;64.80
78779;DHT22;68121;52.404;5.318;2024-03-23T11:45:44;10.00;64.90
78779;DHT22;68121;52.404;5.318;2024-03-23T11:48:12;10.00;65.10
78779;DHT22;68121;52.404;5.318;2024-03-23T11:50:43;10.10;65.00
78779;DHT22;68121;52.404;5.318;2024-03-23T11:55:45;10.40;64.20
78779;DHT22;68121;52.404;5.318;2024-03-23T11:58:12;10.50;63.90
78779;DHT22;68121;52.404;5.318;2024-03-23T12:00:39;10.60;63.70
78779;DHT22;68121;52.404;5.318;2024-03-23T12:03:05;10.60;63.50
78779;DHT22;68121;52.404;5.318;2024-03-23T12:05:32;10.50;63.40
78779;DHT22;68121;52.404;5.318;2024-03-23T12:08:30;10.50;63.30
78779;DHT22;68121;52.404;5.318;2024-03-23T12:11:11;10.40;63.10
78779;DHT22;68121;52.404;5.318;2024-03-23T12:13:38;10.30;63.30
78779;DHT22;68121;52.404;5.318;2024-03-23T12:16:11;10.40;63.50
78779;DHT22;68121;52.404;5.318;2024-03-23T12:18:40;10.60;63.10
78779;DHT22;68121;52.404;5.318;2024-03-23T12:21:06;10.70;62.80
78779;DHT22;68121;52.404;5.318;2024-03-23T12:23:33;10.80;62.50
78779;DHT22;68121;52.404;5.318;2024-03-23T12:26:00;10.60;62.40
78779;DHT22;68121;52.404;5.318;2024-03-23T12:28:26;10.50;62.50
78779;DHT22;68121;52.404;5.318;2024-03-23T12:30:52;10.30;62.70
78779;DHT22;68121;52.404;5.318;2024-03-23T12:33:20;10.10;62.90
78779;DHT22;68121;52.404;5.318;2024-03-23T12:35:51;10.00;63.00
78779;DHT22;68121;52.404;5.318;2024-03-23T12:38:17;9.80;62.90
78779;DHT22;68121;52.404;5.318;2024-03-23T12:40:47;9.50;63.20
78779;DHT22;68121;52.404;5.318;2024-03-23T12:43:16;9.20;63.40
78779;DHT22;68121;52.404;5.318;2024-03-23T12:45:49;9.00;63.50
78779;DHT22;68121;52.404;5.318;2024-03-23T12:48:16;8.80;63.70
78779;DHT22;68121;52.404;5.318;2024-03-23T12:50:42;8.60;64.00
78779;DHT22;68121;52.404;5.318;2024-03-23T12:53:08;8.50;64.30
78779;DHT22;68121;52.404;5.318;2024-03-23T12:55:37;8.40;64.30
78779;DHT22;68121;52.404;5.318;2024-03-23T12:58:04;8.40;64.30
78779;DHT22;68121;52.404;5.318;2024-03-23T13:00:30;8.30;64.30
78779;DHT22;68121;52.404;5.318;2024-03-23T13:02:56;8.40;64.30
78779;DHT22;68121;52.404;5.318;2024-03-23T13:05:22;8.50;64.20
78779;DHT22;68121;52.404;5.318;2024-03-23T13:07:48;8.60;64.00
78779;DHT22;68121;52.404;5.318;2024-03-23T13:10:14;8.80;64.00
78779;DHT22;68121;52.404;5.318;2024-03-23T13:12:41;9.20;63.80
78779;DHT22;68121;52.404;5.318;2024-03-23T13:15:08;9.50;63.40
78779;DHT22;68121;52.404;5.318;2024-03-23T13:17:34;9.70;63.10
78779;DHT22;68121;52.404;5.318;2024-03-23T13:20:00;10.00;62.90
78779;DHT22;68121;52.404;5.318;2024-03-23T13:22:27;10.20;62.70
78779;DHT22;68121;52.404;5.318;2024-03-23T13:24:53;10.40;62.60
78779;DHT22;68121;52.404;5.318;2024-03-23T13:27:19;10.50;62.20
78779;DHT22;68121;52.404;5.318;2024-03-23T13:29:45;10.50;62.10
78779;DHT22;68121;52.404;5.318;2024-03-23T13:32:13;10.20;62.40
78779;DHT22;68121;52.404;5.318;2024-03-23T13:34:39;10.00;62.90
78779;DHT22;68121;52.404;5.318;2024-03-23T13:37:06;9.80;63.40
78779;DHT22;68121;52.404;5.318;2024-03-23T13:39:33;9.90;63.40
78779;DHT22;68121;52.404;5.318;2024-03-23T13:41:59;9.80;63.30
78779;DHT22;68121;52.404;5.318;2024-03-23T13:44:25;9.70;63.30
78779;DHT22;68121;52.404;5.318;2024-03-23T13:46:51;9.70;63.50
78779;DHT22;68121;52.404;5.318;2024-03-23T13:49:28;9.70;63.40
78779;DHT22;68121;52.404;5.318;2024-03-23T13:51:56;9.70;63.30
78779;DHT22;68121;52.404;5.318;2024-03-23T13:54:23;9.70;63.50
78779;DHT22;68121;52.404;5.318;2024-03-23T13:56:50;9.90;63.40
78779;DHT22;68121;52.404;5.318;2024-03-23T13:59:17;10.00;63.30
78779;DHT22;68121;52.404;5.318;2024-03-23T14:01:44;10.30;63.20
78779;DHT22;68121;52.404;5.318;2024-03-23T14:04:12;10.60;62.90
78779;DHT22;68121;52.404;5.318;2024-03-23T14:06:38;10.80;62.70
78779;DHT22;68121;52.404;5.318;2024-03-23T14:09:05;11.00;62.40
78779;DHT22;68121;52.404;5.318;2024-03-23T14:11:31;11.10;62.20
78779;DHT22;68121;52.404;5.318;2024-03-23T14:13:57;11.10;62.10
78779;DHT22;68121;52.404;5.318;2024-03-23T14:16:23;11.10;62.00
78779;DHT22;68121;52.404;5.318;2024-03-23T14:18:49;11.00;61.90
78779;DHT22;68121;52.404;5.318;2024-03-23T14:21:15;11.10;61.80
78779;DHT22;68121;52.404;5.318;2024-03-23T14:23:41;11.10;61.60
78779;DHT22;68121;52.404;5.318;2024-03-23T14:26:07;11.20;61.20
78779;DHT22;68121;52.404;5.318;2024-03-23T14:28:34;11.10;61.10
78779;DHT22;68121;52.404;5.318;2024-03-23T14:31:01;11.00;60.80
78779;DHT22;68121;52.404;5.318;2024-03-23T14:33:27;10.80;60.80
78779;DHT22;68121;52.404;5.318;2024-03-23T14:35:56;10.70;60.80
78779;DHT22;68121;52.404;5.318;2024-03-23T14:38:23;10.70;60.80
78779;DHT22;68121;52.404;5.318;2024-03-23T14:40:49;10.80;60.70
78779;DHT22;68121;52.404;5.318;2024-03-23T14:43:17;10.80;60.50
78779;DHT22;68121;52.404;5.318;2024-03-23T14:46:10;10.90;60.60
78779;DHT22;68121;52.404;5.318;2024-03-23T14:48:37;10.90;60.20
78779;DHT22;68121;52.404;5.318;2024-03-23T14:51:03;10.90;60.40
78779;DHT22;68121;52.404;5.318;2024-03-23T14:53:35;10.90;60.40
78779;DHT22;68121;52.404;5.318;2024-03-23T14:56:03;10.90;60.50
78779;DHT22;68121;52.404;5.318;2024-03-23T14:58:29;10.90;60.60
78779;DHT22;68121;52.404;5.318;2024-03-23T15:01:06;11.00;60.70
78779;DHT22;68121;52.404;5.318;2024-03-23T15:03:39;11.10;60.20
78779;DHT22;68121;52.404;5.318;2024-03-23T15:06:06;11.10;60.20
78779;DHT22;68121;52.404;5.318;2024-03-23T15:08:32;11.10;60.00
78779;DHT22;68121;52.404;5.318;2024-03-23T15:11:01;11.10;59.70
78779;DHT22;68121;52.404;5.318;2024-03-23T15:13:34;11.00;59.50
78779;DHT22;68121;52.404;5.318;2024-03-23T15:16:01;10.90;59.40
78779;DHT22;68121;52.404;5.318;2024-03-23T15:18:30;10.90;59.20
78779;DHT22;68121;52.404;5.318;2024-03-23T15:21:00;10.80;59.10
78779;DHT22;68121;52.404;5.318;2024-03-23T15:23:32;10.70;58.90
78779;DHT22;68121;52.404;5.318;2024-03-23T15:25:59;10.60;58.80
78779;DHT22;68121;52.404;5.318;2024-03-23T15:28:27;10.50;58.70
78779;DHT22;68121;52.404;5.318;2024-03-23T15:31:07;10.40;58.70
78779;DHT22;68121;52.404;5.318;2024-03-23T15:33:33;10.30;58.70
78779;DHT22;68121;52.404;5.318;2024-03-23T15:36:00;10.30;58.80
78779;DHT22;68121;52.404;5.318;2024-03-23T15:38:26;10.30;58.80
78779;DHT22;68121;52.404;5.318;2024-03-23T15:40:52;10.20;58.90
78779;DHT22;68121;52.404;5.318;2024-03-23T15:43:18;10.20;58.90
78779;DHT22;68121;52.404;5.318;2024-03-23T15:45:54;10.10;58.80
78779;DHT22;68121;52.404;5.318;2024-03-23T15:48:20;10.10;58.80
78779;DHT22;68121;52.404;5.318;2024-03-23T15:50:53;10.00;58.70
78779;DHT22;68121;52.404;5.318;2024-03-23T15:53:20;10.00;58.70
78779;DHT22;68121;52.404;5.318;2024-03-23T15:58:23;10.10;58.70
78779;DHT22;68121;52.404;5.318;2024-03-23T16:01:05;10.10;58.80
78779;DHT22;68121;52.404;5.318;2024-03-23T16:03:32;10.20;58.70
78779;DHT22;68121;52.404;5.318;2024-03-23T16:06:00;10.20;58.70
78779;DHT22;68121;52.404;5.318;2024-03-23T16:08:27;10.20;58.70
78779;DHT22;68121;52.404;5.318;2024-03-23T16:10:53;10.20;58.70
78779;DHT22;68121;52.404;5.318;2024-03-23T16:13:20;10.10;58.60
78779;DHT22;68121;52.404;5.318;2024-03-23T16:15:57;10.10;58.70
78779;DHT22;68121;52.404;5.318;2024-03-23T16:18:24;10.00;58.60
78779;DHT22;68121;52.404;5.318;2024-03-23T16:20:55;9.90;58.50
78779;DHT22;68121;52.404;5.318;2024-03-23T16:23:21;9.80;58.50
78779;DHT22;68121;52.404;5.318;2024-03-23T16:25:49;9.50;58.60
78779;DHT22;68121;52.404;5.318;2024-03-23T16:28:41;9.40;58.90
78779;DHT22;68121;52.404;5.318;2024-03-23T16:31:09;9.30;59.50
78779;DHT22;68121;52.404;5.318;2024-03-23T16:33:36;9.20;59.70
78779;DHT22;68121;52.404;5.318;2024-03-23T16:36:03;9.20;59.90
78779;DHT22;68121;52.404;5.318;2024-03-23T16:38:31;9.10;60.00
78779;DHT22;68121;52.404;5.318;2024-03-23T16:41:05;9.10;60.30
78779;DHT22;68121;52.404;5.318;2024-03-23T16:43:32;9.00;60.40
78779;DHT22;68121;52.404;5.318;2024-03-23T16:46:00;9.00;60.50
78779;DHT22;68121;52.404;5.318;2024-03-23T16:48:28;9.00;60.50
78779;DHT22;68121;52.404;5.318;2024-03-23T16:50:57;9.00;60.80
78779;DHT22;68121;52.404;5.318;2024-03-23T16:53:23;9.00;60.80
78779;DHT22;68121;52.404;5.318;2024-03-23T16:55:58;9.00;60.90